sensor_id;sensor_type;location;lat;lon;timestamp;P1;durP1;ratioP1;P2;durP2;ratioP2
21581;SDS011;10952;50.836;4.348;2024-01-15T00:02:05;46.77;;;16.70;;
21581;SDS011;10952;50.836;4.348;2024-01-15T00:04:35;40.13;;;14.67;;
21581;SDS011;10952;50.836;4.348;2024-01-15T00:07:02;37.00;;;15.63;;
21581;SDS011;10952;50.836;4.348;2024-01-15T00:09:28;42.03;;;16.73;;
21581;SDS011;10952;50.836;4.348;2024-01-15T00:11:54;36.43;;;15.33;;
21581;SDS011;10952;50.836;4.348;2024-01-15T00:14:19;38.03;;;14.77;;
21581;SDS011;10952;50.836;4.348;2024-01-15T00:16:45;34.23;;;15.43;;
21581;SDS011;10952;50.836;4.348;2024-01-15T00:19:11;40.13;;;14.87;;
21581;SDS011;10952;50.836;4.348;2024-01-15T00:21:37;33.80;;;14.10;;
21581;SDS011;10952;50.836;4.348;2024-01-15T00:24:03;37.80;;;14.70;;
21581;SDS011;10952;50.836;4.348;2024-01-15T00:26:29;32.63;;;14.17;;
21581;SDS011;10952;50.836;4.348;2024-01-15T00:28:54;33.40;;;15.00;;
21581;SDS011;10952;50.836;4.348;2024-01-15T00:31:20;28.90;;;12.73;;
21581;SDS011;10952;50.836;4.348;2024-01-15T00:33:46;31.50;;;14.20;;
21581;SDS011;10952;50.836;4.348;2024-01-15T00:36:11;34.77;;;13.70;;
21581;SDS011;10952;50.836;4.348;2024-01-15T00:38:38;30.53;;;13.07;;
21581;SDS011;10952;50.836;4.348;2024-01-15T00:41:04;30.87;;;13.63;;
21581;SDS011;10952;50.836;4.348;2024-01-15T00:43:29;34.77;;;13.60;;
21581;SDS011;10952;50.836;4.348;2024-01-15T00:45:55;25.70;;;11.37;;
21581;SDS011;10952;50.836;4.348;2024-01-15T00:48:20;30.40;;;12.33;;
21581;SDS011;10952;50.836;4.348;2024-01-15T00:50:46;29.47;;;12.70;;
21581;SDS011;10952;50.836;4.348;2024-01-15T00:53:12;26.97;;;10.43;;
21581;SDS011;10952;50.836;4.348;2024-01-15T00:55:37;27.30;;;10.73;;
21581;SDS011;10952;50.836;4.348;2024-01-15T00:58:03;24.27;;;10.37;;
21581;SDS011;10952;50.836;4.348;2024-01-15T01:00:29;18.60;;;9.30;;
21581;SDS011;10952;50.836;4.348;2024-01-15T01:02:54;25.20;;;10.33;;
21581;SDS011;10952;50.836;4.348;2024-01-15T01:05:20;22.80;;;9.43;;
21581;SDS011;10952;50.836;4.348;2024-01-15T01:07:46;22.53;;;10.00;;
21581;SDS011;10952;50.836;4.348;2024-01-15T01:10:11;21.73;;;10.00;;
21581;SDS011;10952;50.836;4.348;2024-01-15T01:12:37;22.23;;;9.53;;
21581;SDS011;10952;50.836;4.348;2024-01-15T01:15:02;18.60;;;8.93;;
21581;SDS011;10952;50.836;4.348;2024-01-15T01:17:29;21.30;;;8.50;;
21581;SDS011;10952;50.836;4.348;2024-01-15T01:19:55;19.00;;;7.80;;
21581;SDS011;10952;50.836;4.348;2024-01-15T01:22:21;18.30;;;7.93;;
21581;SDS011;10952;50.836;4.348;2024-01-15T01:24:47;15.60;;;7.87;;
21581;SDS011;10952;50.836;4.348;2024-01-15T01:27:12;15.00;;;7.07;;
21581;SDS011;10952;50.836;4.348;2024-01-15T01:29:38;15.63;;;7.43;;
21581;SDS011;10952;50.836;4.348;2024-01-15T01:32:03;16.30;;;7.67;;
21581;SDS011;10952;50.836;4.348;2024-01-15T01:34:29;16.93;;;7.80;;
21581;SDS011;10952;50.836;4.348;2024-01-15T01:36:58;20.30;;;8.93;;
21581;SDS011;10952;50.836;4.348;2024-01-15T01:39:23;14.93;;;7.10;;
21581;SDS011;10952;50.836;4.348;2024-01-15T01:41:49;14.77;;;7.47;;
21581;SDS011;10952;50.836;4.348;2024-01-15T01:44:14;14.90;;;6.63;;
21581;SDS011;10952;50.836;4.348;2024-01-15T01:46:40;13.00;;;6.30;;
21581;SDS011;10952;50.836;4.348;2024-01-15T01:49:06;12.37;;;6.13;;
21581;SDS011;10952;50.836;4.348;2024-01-15T01:51:34;12.83;;;6.80;;
21581;SDS011;10952;50.836;4.348;2024-01-15T01:54:02;14.00;;;7.07;;
21581;SDS011;10952;50.836;4.348;2024-01-15T01:56:29;12.03;;;5.47;;
21581;SDS011;10952;50.836;4.348;2024-01-15T01:58:55;13.03;;;5.83;;
21581;SDS011;10952;50.836;4.348;2024-01-15T02:01:21;12.80;;;6.27;;
21581;SDS011;10952;50.836;4.348;2024-01-15T02:03:47;11.97;;;6.20;;
21581;SDS011;10952;50.836;4.348;2024-01-15T02:06:13;9.87;;;5.63;;
21581;SDS011;10952;50.836;4.348;2024-01-15T02:08:39;7.73;;;4.67;;
21581;SDS011;10952;50.836;4.348;2024-01-15T02:11:08;13.70;;;5.03;;
21581;SDS011;10952;50.836;4.348;2024-01-15T02:13:33;14.80;;;5.23;;
21581;SDS011;10952;50.836;4.348;2024-01-15T02:15:59;12.63;;;5.33;;
21581;SDS011;10952;50.836;4.348;2024-01-15T02:18:24;9.67;;;4.37;;
21581;SDS011;10952;50.836;4.348;2024-01-15T02:20:50;8.47;;;3.80;;
21581;SDS011;10952;50.836;4.348;2024-01-15T02:23:16;11.03;;;4.87;;
21581;SDS011;10952;50.836;4.348;2024-01-15T02:25:45;9.73;;;4.67;;
21581;SDS011;10952;50.836;4.348;2024-01-15T02:28:12;8.97;;;3.83;;
21581;SDS011;10952;50.836;4.348;2024-01-15T02:30:40;6.13;;;3.57;;
21581;SDS011;10952;50.836;4.348;2024-01-15T02:33:07;8.97;;;3.40;;
21581;SDS011;10952;50.836;4.348;2024-01-15T02:35:34;8.57;;;3.60;;
21581;SDS011;10952;50.836;4.348;2024-01-15T02:38:01;6.60;;;4.10;;
21581;SDS011;10952;50.836;4.348;2024-01-15T02:40:27;12.27;;;5.33;;
21581;SDS011;10952;50.836;4.348;2024-01-15T02:42:53;14.50;;;5.20;;
21581;SDS011;10952;50.836;4.348;2024-01-15T02:45:19;14.13;;;6.30;;
21581;SDS011;10952;50.836;4.348;2024-01-15T02:47:46;15.40;;;7.23;;
21581;SDS011;10952;50.836;4.348;2024-01-15T02:50:12;13.07;;;6.73;;
21581;SDS011;10952;50.836;4.348;2024-01-15T02:52:38;15.03;;;7.53;;
21581;SDS011;10952;50.836;4.348;2024-01-15T02:55:04;17.13;;;7.70;;
21581;SDS011;10952;50.836;4.348;2024-01-15T02:57:30;18.93;;;8.40;;
21581;SDS011;10952;50.836;4.348;2024-01-15T02:59:55;18.07;;;9.13;;
21581;SDS011;10952;50.836;4.348;2024-01-15T03:02:21;15.27;;;9.00;;
21581;SDS011;10952;50.836;4.348;2024-01-15T03:04:47;17.43;;;8.67;;
21581;SDS011;10952;50.836;4.348;2024-01-15T03:07:12;20.77;;;9.93;;
21581;SDS011;10952;50.836;4.348;2024-01-15T03:09:38;19.43;;;9.60;;
21581;SDS011;10952;50.836;4.348;2024-01-15T03:12:04;21.60;;;9.63;;
21581;SDS011;10952;50.836;4.348;2024-01-15T03:14:30;19.27;;;9.97;;
21581;SDS011;10952;50.836;4.348;2024-01-15T03:16:55;24.97;;;10.17;;
21581;SDS011;10952;50.836;4.348;2024-01-15T03:19:21;24.80;;;10.50;;
21581;SDS011;10952;50.836;4.348;2024-01-15T03:21:47;21.60;;;10.37;;
21581;SDS011;10952;50.836;4.348;2024-01-15T03:24:13;27.43;;;11.53;;
21581;SDS011;10952;50.836;4.348;2024-01-15T03:26:39;27.57;;;11.27;;
21581;SDS011;10952;50.836;4.348;2024-01-15T03:29:04;20.27;;;9.20;;
21581;SDS011;10952;50.836;4.348;2024-01-15T03:31:31;26.43;;;12.23;;
21581;SDS011;10952;50.836;4.348;2024-01-15T03:33:56;21.87;;;11.27;;
21581;SDS011;10952;50.836;4.348;2024-01-15T03:36:22;23.47;;;10.90;;
21581;SDS011;10952;50.836;4.348;2024-01-15T03:38:48;22.67;;;11.27;;
21581;SDS011;10952;50.836;4.348;2024-01-15T03:41:13;23.70;;;11.33;;
21581;SDS011;10952;50.836;4.348;2024-01-15T03:43:39;19.80;;;9.20;;
21581;SDS011;10952;50.836;4.348;2024-01-15T03:46:05;27.93;;;12.13;;
21581;SDS011;10952;50.836;4.348;2024-01-15T03:48:31;30.20;;;13.43;;
21581;SDS011;10952;50.836;4.348;2024-01-15T03:50:56;28.07;;;12.47;;
21581;SDS011;10952;50.836;4.348;2024-01-15T03:53:22;28.57;;;12.63;;
21581;SDS011;10952;50.836;4.348;2024-01-15T03:55:48;33.63;;;13.50;;
21581;SDS011;10952;50.836;4.348;2024-01-15T03:58:14;25.93;;;12.53;;
21581;SDS011;10952;50.836;4.348;2024-01-15T04:00:42;29.77;;;13.00;;
21581;SDS011;10952;50.836;4.348;2024-01-15T04:03:08;29.50;;;14.07;;
21581;SDS011;10952;50.836;4.348;2024-01-15T04:05:34;32.00;;;13.63;;
21581;SDS011;10952;50.836;4.348;2024-01-15T04:07:59;34.00;;;14.67;;
21581;SDS011;10952;50.836;4.348;2024-01-15T04:10:25;28.43;;;13.10;;
21581;SDS011;10952;50.836;4.348;2024-01-15T04:12:51;26.43;;;12.90;;
21581;SDS011;10952;50.836;4.348;2024-01-15T04:15:16;25.23;;;13.30;;
21581;SDS011;10952;50.836;4.348;2024-01-15T04:17:42;28.70;;;13.37;;
21581;SDS011;10952;50.836;4.348;2024-01-15T04:20:08;32.73;;;14.00;;
21581;SDS011;10952;50.836;4.348;2024-01-15T04:22:34;28.30;;;12.87;;
21581;SDS011;10952;50.836;4.348;2024-01-15T04:25:00;29.93;;;14.20;;
21581;SDS011;10952;50.836;4.348;2024-01-15T04:27:26;27.60;;;12.60;;
21581;SDS011;10952;50.836;4.348;2024-01-15T04:29:52;31.40;;;14.67;;
21581;SDS011;10952;50.836;4.348;2024-01-15T04:32:18;29.00;;;13.70;;
21581;SDS011;10952;50.836;4.348;2024-01-15T04:34:44;33.73;;;13.50;;
21581;SDS011;10952;50.836;4.348;2024-01-15T04:37:10;28.63;;;13.53;;
21581;SDS011;10952;50.836;4.348;2024-01-15T04:39:35;28.73;;;13.60;;
21581;SDS011;10952;50.836;4.348;2024-01-15T04:42:01;29.80;;;13.57;;
21581;SDS011;10952;50.836;4.348;2024-01-15T04:44:28;27.20;;;13.47;;
21581;SDS011;10952;50.836;4.348;2024-01-15T04:46:54;31.70;;;12.97;;
21581;SDS011;10952;50.836;4.348;2024-01-15T04:49:19;29.20;;;13.10;;
21581;SDS011;10952;50.836;4.348;2024-01-15T04:51:45;25.33;;;11.53;;
21581;SDS011;10952;50.836;4.348;2024-01-15T04:54:10;25.83;;;11.30;;
21581;SDS011;10952;50.836;4.348;2024-01-15T04:56:36;22.33;;;10.53;;
21581;SDS011;10952;50.836;4.348;2024-01-15T04:59:02;25.63;;;10.67;;
21581;SDS011;10952;50.836;4.348;2024-01-15T05:01:34;22.57;;;10.47;;
21581;SDS011;10952;50.836;4.348;2024-01-15T05:04:00;18.03;;;7.70;;
21581;SDS011;10952;50.836;4.348;2024-01-15T05:06:26;14.37;;;7.60;;
21581;SDS011;10952;50.836;4.348;2024-01-15T05:08:51;16.17;;;7.47;;
21581;SDS011;10952;50.836;4.348;2024-01-15T05:11:17;11.97;;;4.67;;
21581;SDS011;10952;50.836;4.348;2024-01-15T05:13:43;12.40;;;4.47;;
21581;SDS011;10952;50.836;4.348;2024-01-15T05:16:08;9.03;;;3.47;;
21581;SDS011;10952;50.836;4.348;2024-01-15T05:18:34;12.03;;;3.60;;
21581;SDS011;10952;50.836;4.348;2024-01-15T05:21:02;7.77;;;3.40;;
21581;SDS011;10952;50.836;4.348;2024-01-15T05:23:28;11.57;;;3.40;;
21581;SDS011;10952;50.836;4.348;2024-01-15T05:25:53;6.37;;;3.93;;
21581;SDS011;10952;50.836;4.348;2024-01-15T05:28:19;6.13;;;2.83;;
21581;SDS011;10952;50.836;4.348;2024-01-15T05:30:45;10.37;;;3.70;;
21581;SDS011;10952;50.836;4.348;2024-01-15T05:33:10;7.20;;;3.27;;
21581;SDS011;10952;50.836;4.348;2024-01-15T05:35:36;7.40;;;2.70;;
21581;SDS011;10952;50.836;4.348;2024-01-15T05:38:01;13.30;;;3.73;;
21581;SDS011;10952;50.836;4.348;2024-01-15T05:40:27;8.83;;;3.53;;
21581;SDS011;10952;50.836;4.348;2024-01-15T05:42:53;7.77;;;3.00;;
21581;SDS011;10952;50.836;4.348;2024-01-15T05:45:19;6.33;;;3.10;;
21581;SDS011;10952;50.836;4.348;2024-01-15T05:47:44;10.03;;;3.70;;
21581;SDS011;10952;50.836;4.348;2024-01-15T05:50:10;5.70;;;2.60;;
21581;SDS011;10952;50.836;4.348;2024-01-15T05:52:36;5.27;;;2.13;;
21581;SDS011;10952;50.836;4.348;2024-01-15T05:55:02;4.93;;;1.60;;
21581;SDS011;10952;50.836;4.348;2024-01-15T05:57:27;4.13;;;1.87;;
21581;SDS011;10952;50.836;4.348;2024-01-15T05:59:53;6.60;;;2.77;;
21581;SDS011;10952;50.836;4.348;2024-01-15T06:02:19;2.90;;;1.70;;
21581;SDS011;10952;50.836;4.348;2024-01-15T06:04:45;4.27;;;1.63;;
21581;SDS011;10952;50.836;4.348;2024-01-15T06:07:10;4.63;;;1.70;;
21581;SDS011;10952;50.836;4.348;2024-01-15T06:09:36;8.40;;;1.20;;
21581;SDS011;10952;50.836;4.348;2024-01-15T06:12:02;3.73;;;1.53;;
21581;SDS011;10952;50.836;4.348;2024-01-15T06:14:27;4.80;;;1.67;;
21581;SDS011;10952;50.836;4.348;2024-01-15T06:16:53;3.40;;;1.50;;
21581;SDS011;10952;50.836;4.348;2024-01-15T06:19:19;2.47;;;1.50;;
21581;SDS011;10952;50.836;4.348;2024-01-15T06:21:44;6.30;;;1.80;;
21581;SDS011;10952;50.836;4.348;2024-01-15T06:24:10;8.17;;;2.73;;
21581;SDS011;10952;50.836;4.348;2024-01-15T06:26:36;4.17;;;1.90;;
21581;SDS011;10952;50.836;4.348;2024-01-15T06:29:02;9.97;;;1.83;;
21581;SDS011;10952;50.836;4.348;2024-01-15T06:31:28;7.47;;;2.90;;
21581;SDS011;10952;50.836;4.348;2024-01-15T06:33:54;5.83;;;2.33;;
21581;SDS011;10952;50.836;4.348;2024-01-15T06:36:20;10.23;;;2.70;;
21581;SDS011;10952;50.836;4.348;2024-01-15T06:38:45;8.00;;;2.70;;
21581;SDS011;10952;50.836;4.348;2024-01-15T06:41:11;5.60;;;2.77;;
21581;SDS011;10952;50.836;4.348;2024-01-15T06:43:37;5.10;;;2.80;;
21581;SDS011;10952;50.836;4.348;2024-01-15T06:46:02;8.30;;;3.40;;
21581;SDS011;10952;50.836;4.348;2024-01-15T06:48:28;4.97;;;2.93;;
21581;SDS011;10952;50.836;4.348;2024-01-15T06:50:54;13.47;;;4.63;;
21581;SDS011;10952;50.836;4.348;2024-01-15T06:53:19;9.60;;;4.07;;
21581;SDS011;10952;50.836;4.348;2024-01-15T06:55:45;8.50;;;3.97;;
21581;SDS011;10952;50.836;4.348;2024-01-15T06:58:11;8.53;;;4.43;;
21581;SDS011;10952;50.836;4.348;2024-01-15T07:00:37;10.30;;;4.70;;
21581;SDS011;10952;50.836;4.348;2024-01-15T07:03:03;11.60;;;5.47;;
21581;SDS011;10952;50.836;4.348;2024-01-15T07:05:28;9.27;;;5.20;;
21581;SDS011;10952;50.836;4.348;2024-01-15T07:07:55;10.57;;;5.30;;
21581;SDS011;10952;50.836;4.348;2024-01-15T07:10:21;10.00;;;5.87;;
21581;SDS011;10952;50.836;4.348;2024-01-15T07:12:47;14.10;;;5.90;;
21581;SDS011;10952;50.836;4.348;2024-01-15T07:15:13;16.50;;;5.80;;
21581;SDS011;10952;50.836;4.348;2024-01-15T07:17:39;9.73;;;5.17;;
21581;SDS011;10952;50.836;4.348;2024-01-15T07:20:08;11.13;;;5.93;;
21581;SDS011;10952;50.836;4.348;2024-01-15T07:22:37;13.17;;;4.80;;
21581;SDS011;10952;50.836;4.348;2024-01-15T07:25:02;14.87;;;5.67;;
21581;SDS011;10952;50.836;4.348;2024-01-15T07:27:30;12.50;;;5.03;;
21581;SDS011;10952;50.836;4.348;2024-01-15T07:29:56;14.63;;;5.07;;
21581;SDS011;10952;50.836;4.348;2024-01-15T07:32:22;12.13;;;5.73;;
21581;SDS011;10952;50.836;4.348;2024-01-15T07:34:48;18.63;;;5.40;;
21581;SDS011;10952;50.836;4.348;2024-01-15T07:37:14;12.20;;;6.03;;
21581;SDS011;10952;50.836;4.348;2024-01-15T07:39:39;12.33;;;5.47;;
21581;SDS011;10952;50.836;4.348;2024-01-15T07:42:05;12.23;;;6.27;;
21581;SDS011;10952;50.836;4.348;2024-01-15T07:44:31;18.03;;;6.60;;
21581;SDS011;10952;50.836;4.348;2024-01-15T07:46:56;14.10;;;6.37;;
21581;SDS011;10952;50.836;4.348;2024-01-15T07:49:22;10.80;;;5.93;;
21581;SDS011;10952;50.836;4.348;2024-01-15T07:51:51;11.47;;;7.40;;
21581;SDS011;10952;50.836;4.348;2024-01-15T07:54:18;22.30;;;8.27;;
21581;SDS011;10952;50.836;4.348;2024-01-15T07:56:56;14.27;;;7.03;;
21581;SDS011;10952;50.836;4.348;2024-01-15T07:59:28;14.67;;;8.00;;
21581;SDS011;10952;50.836;4.348;2024-01-15T08:01:55;19.43;;;8.67;;
21581;SDS011;10952;50.836;4.348;2024-01-15T08:04:27;16.70;;;8.30;;
21581;SDS011;10952;50.836;4.348;2024-01-15T08:06:55;17.67;;;7.57;;
21581;SDS011;10952;50.836;4.348;2024-01-15T08:11:50;14.67;;;7.53;;
21581;SDS011;10952;50.836;4.348;2024-01-15T08:14:23;14.33;;;7.13;;
21581;SDS011;10952;50.836;4.348;2024-01-15T08:16:52;22.90;;;7.10;;
21581;SDS011;10952;50.836;4.348;2024-01-15T08:19:18;10.93;;;6.37;;
21581;SDS011;10952;50.836;4.348;2024-01-15T08:22:03;14.33;;;7.03;;
21581;SDS011;10952;50.836;4.348;2024-01-15T08:24:30;11.93;;;5.93;;
21581;SDS011;10952;50.836;4.348;2024-01-15T08:27:03;15.40;;;5.53;;
21581;SDS011;10952;50.836;4.348;2024-01-15T08:29:33;14.63;;;5.27;;
21581;SDS011;10952;50.836;4.348;2024-01-15T08:32:00;10.83;;;5.27;;
21581;SDS011;10952;50.836;4.348;2024-01-15T08:36:56;11.73;;;4.30;;
21581;SDS011;10952;50.836;4.348;2024-01-15T08:39:22;7.50;;;3.50;;
21581;SDS011;10952;50.836;4.348;2024-01-15T08:41:55;8.10;;;3.50;;
21581;SDS011;10952;50.836;4.348;2024-01-15T08:44:22;10.37;;;2.97;;
21581;SDS011;10952;50.836;4.348;2024-01-15T08:46:51;9.13;;;2.93;;
21581;SDS011;10952;50.836;4.348;2024-01-15T08:49:17;13.43;;;2.50;;
21581;SDS011;10952;50.836;4.348;2024-01-15T08:51:48;6.20;;;2.30;;
21581;SDS011;10952;50.836;4.348;2024-01-15T08:54:17;9.57;;;2.43;;
21581;SDS011;10952;50.836;4.348;2024-01-15T08:56:49;13.73;;;3.50;;
21581;SDS011;10952;50.836;4.348;2024-01-15T08:59:22;7.67;;;2.47;;
21581;SDS011;10952;50.836;4.348;2024-01-15T09:02:00;9.07;;;2.80;;
21581;SDS011;10952;50.836;4.348;2024-01-15T09:04:27;13.60;;;2.63;;
21581;SDS011;10952;50.836;4.348;2024-01-15T09:06:55;9.87;;;2.20;;
21581;SDS011;10952;50.836;4.348;2024-01-15T09:09:20;10.83;;;2.43;;
21581;SDS011;10952;50.836;4.348;2024-01-15T09:11:48;6.63;;;1.50;;
21581;SDS011;10952;50.836;4.348;2024-01-15T09:14:16;11.73;;;2.80;;
21581;SDS011;10952;50.836;4.348;2024-01-15T09:16:42;10.03;;;2.43;;
21581;SDS011;10952;50.836;4.348;2024-01-15T09:21:41;10.60;;;2.07;;
21581;SDS011;10952;50.836;4.348;2024-01-15T09:24:13;9.03;;;2.20;;
21581;SDS011;10952;50.836;4.348;2024-01-15T09:26:40;10.30;;;1.90;;
21581;SDS011;10952;50.836;4.348;2024-01-15T09:29:07;9.13;;;2.33;;
21581;SDS011;10952;50.836;4.348;2024-01-15T09:31:35;10.47;;;2.23;;
21581;SDS011;10952;50.836;4.348;2024-01-15T09:34:01;9.07;;;2.83;;
21581;SDS011;10952;50.836;4.348;2024-01-15T09:36:27;12.17;;;2.47;;
21581;SDS011;10952;50.836;4.348;2024-01-15T09:38:53;8.50;;;2.13;;
21581;SDS011;10952;50.836;4.348;2024-01-15T09:41:21;5.27;;;1.70;;
21581;SDS011;10952;50.836;4.348;2024-01-15T09:43:50;7.17;;;1.67;;
21581;SDS011;10952;50.836;4.348;2024-01-15T09:46:18;5.57;;;1.67;;
21581;SDS011;10952;50.836;4.348;2024-01-15T09:48:47;12.33;;;3.60;;
21581;SDS011;10952;50.836;4.348;2024-01-15T09:51:12;15.10;;;2.30;;
21581;SDS011;10952;50.836;4.348;2024-01-15T09:53:42;6.93;;;1.67;;
21581;SDS011;10952;50.836;4.348;2024-01-15T09:56:10;13.07;;;2.63;;
21581;SDS011;10952;50.836;4.348;2024-01-15T09:58:35;11.60;;;2.63;;
21581;SDS011;10952;50.836;4.348;2024-01-15T10:01:02;12.00;;;1.73;;
21581;SDS011;10952;50.836;4.348;2024-01-15T10:03:30;9.47;;;2.27;;
21581;SDS011;10952;50.836;4.348;2024-01-15T10:05:59;7.17;;;2.03;;
21581;SDS011;10952;50.836;4.348;2024-01-15T10:08:30;7.13;;;2.23;;
21581;SDS011;10952;50.836;4.348;2024-01-15T10:10:57;10.90;;;2.40;;
21581;SDS011;10952;50.836;4.348;2024-01-15T10:13:23;12.83;;;1.80;;
21581;SDS011;10952;50.836;4.348;2024-01-15T10:15:51;6.20;;;2.00;;
21581;SDS011;10952;50.836;4.348;2024-01-15T10:18:20;10.50;;;2.10;;
21581;SDS011;10952;50.836;4.348;2024-01-15T10:20:47;10.67;;;2.40;;
21581;SDS011;10952;50.836;4.348;2024-01-15T10:23:14;6.33;;;2.13;;
21581;SDS011;10952;50.836;4.348;2024-01-15T10:25:43;15.60;;;2.57;;
21581;SDS011;10952;50.836;4.348;2024-01-15T10:28:13;17.93;;;2.53;;
21581;SDS011;10952;50.836;4.348;2024-01-15T10:30:39;9.30;;;2.50;;
21581;SDS011;10952;50.836;4.348;2024-01-15T10:33:06;18.70;;;2.80;;
21581;SDS011;10952;50.836;4.348;2024-01-15T10:35:34;8.70;;;2.23;;
21581;SDS011;10952;50.836;4.348;2024-01-15T10:38:00;12.00;;;2.50;;
21581;SDS011;10952;50.836;4.348;2024-01-15T10:40:28;2.63;;;1.23;;
21581;SDS011;10952;50.836;4.348;2024-01-15T10:42:56;4.87;;;1.80;;
21581;SDS011;10952;50.836;4.348;2024-01-15T10:45:23;6.53;;;1.60;;
21581;SDS011;10952;50.836;4.348;2024-01-15T10:47:54;5.23;;;2.10;;
21581;SDS011;10952;50.836;4.348;2024-01-15T10:50:23;9.10;;;1.70;;
21581;SDS011;10952;50.836;4.348;2024-01-15T10:52:50;5.90;;;1.90;;
21581;SDS011;10952;50.836;4.348;2024-01-15T10:55:17;7.20;;;1.53;;
21581;SDS011;10952;50.836;4.348;2024-01-15T10:57:46;6.23;;;1.80;;
21581;SDS011;10952;50.836;4.348;2024-01-15T11:00:14;11.40;;;1.83;;
21581;SDS011;10952;50.836;4.348;2024-01-15T11:02:43;8.87;;;2.10;;
21581;SDS011;10952;50.836;4.348;2024-01-15T11:05:10;5.97;;;1.93;;
21581;SDS011;10952;50.836;4.348;2024-01-15T11:07:38;7.93;;;1.40;;
21581;SDS011;10952;50.836;4.348;2024-01-15T11:25:23;8.20;;;1.67;;
21581;SDS011;10952;50.836;4.348;2024-01-15T11:31:19;8.57;;;2.03;;
21581;SDS011;10952;50.836;4.348;2024-01-15T11:43:29;9.70;;;1.60;;
21581;SDS011;10952;50.836;4.348;2024-01-15T11:46:38;13.17;;;2.40;;
21581;SDS011;10952;50.836;4.348;2024-01-15T11:49:37;15.20;;;3.23;;
21581;SDS011;10952;50.836;4.348;2024-01-15T11:52:21;7.17;;;1.40;;
21581;SDS011;10952;50.836;4.348;2024-01-15T11:58:24;5.63;;;1.67;;
21581;SDS011;10952;50.836;4.348;2024-01-15T12:04:00;8.80;;;2.03;;
21581;SDS011;10952;50.836;4.348;2024-01-15T12:06:36;16.37;;;2.23;;
21581;SDS011;10952;50.836;4.348;2024-01-15T12:09:59;5.77;;;1.50;;
21581;SDS011;10952;50.836;4.348;2024-01-15T12:12:39;4.90;;;2.00;;
21581;SDS011;10952;50.836;4.348;2024-01-15T12:15:16;11.27;;;2.60;;
21581;SDS011;10952;50.836;4.348;2024-01-15T12:17:46;11.33;;;2.47;;
21581;SDS011;10952;50.836;4.348;2024-01-15T12:20:35;8.47;;;1.67;;
21581;SDS011;10952;50.836;4.348;2024-01-15T12:23:01;7.17;;;2.67;;
21581;SDS011;10952;50.836;4.348;2024-01-15T12:25:39;7.63;;;2.10;;
21581;SDS011;10952;50.836;4.348;2024-01-15T12:28:07;5.23;;;2.17;;
21581;SDS011;10952;50.836;4.348;2024-01-15T12:30:36;11.30;;;1.90;;
21581;SDS011;10952;50.836;4.348;2024-01-15T12:35:59;5.97;;;2.03;;
21581;SDS011;10952;50.836;4.348;2024-01-15T12:38:28;5.57;;;1.37;;
21581;SDS011;10952;50.836;4.348;2024-01-15T12:40:54;8.70;;;2.40;;
21581;SDS011;10952;50.836;4.348;2024-01-15T12:43:19;10.87;;;1.70;;
21581;SDS011;10952;50.836;4.348;2024-01-15T12:45:47;13.00;;;1.33;;
21581;SDS011;10952;50.836;4.348;2024-01-15T12:48:16;7.30;;;1.63;;
21581;SDS011;10952;50.836;4.348;2024-01-15T12:50:43;9.70;;;1.90;;
21581;SDS011;10952;50.836;4.348;2024-01-15T12:53:12;4.77;;;1.23;;
21581;SDS011;10952;50.836;4.348;2024-01-15T12:55:51;9.20;;;1.37;;
21581;SDS011;10952;50.836;4.348;2024-01-15T12:58:41;4.73;;;1.00;;
21581;SDS011;10952;50.836;4.348;2024-01-15T13:03:51;8.23;;;2.13;;
21581;SDS011;10952;50.836;4.348;2024-01-15T13:06:23;13.47;;;2.17;;
21581;SDS011;10952;50.836;4.348;2024-01-15T13:08:50;7.53;;;1.53;;
21581;SDS011;10952;50.836;4.348;2024-01-15T13:11:37;3.60;;;1.10;;
21581;SDS011;10952;50.836;4.348;2024-01-15T13:14:05;8.47;;;1.80;;
21581;SDS011;10952;50.836;4.348;2024-01-15T13:16:35;3.87;;;1.10;;
21581;SDS011;10952;50.836;4.348;2024-01-15T13:19:09;7.50;;;1.63;;
21581;SDS011;10952;50.836;4.348;2024-01-15T13:21:54;12.87;;;1.83;;
21581;SDS011;10952;50.836;4.348;2024-01-15T13:28:03;11.93;;;2.00;;
21581;SDS011;10952;50.836;4.348;2024-01-15T13:30:34;12.07;;;2.97;;
21581;SDS011;10952;50.836;4.348;2024-01-15T13:33:05;12.60;;;2.60;;
21581;SDS011;10952;50.836;4.348;2024-01-15T13:36:06;14.27;;;2.80;;
21581;SDS011;10952;50.836;4.348;2024-01-15T13:38:47;11.63;;;2.00;;
21581;SDS011;10952;50.836;4.348;2024-01-15T13:41:13;11.43;;;2.70;;
21581;SDS011;10952;50.836;4.348;2024-01-15T13:43:43;8.70;;;1.73;;
21581;SDS011;10952;50.836;4.348;2024-01-15T13:46:11;9.80;;;3.43;;
21581;SDS011;10952;50.836;4.348;2024-01-15T13:48:39;13.50;;;2.13;;
21581;SDS011;10952;50.836;4.348;2024-01-15T13:51:28;9.70;;;2.50;;
21581;SDS011;10952;50.836;4.348;2024-01-15T13:54:07;6.17;;;1.70;;
21581;SDS011;10952;50.836;4.348;2024-01-15T14:01:59;9.37;;;1.50;;
21581;SDS011;10952;50.836;4.348;2024-01-15T14:04:29;10.27;;;1.90;;
21581;SDS011;10952;50.836;4.348;2024-01-15T14:07:31;2.90;;;1.27;;
21581;SDS011;10952;50.836;4.348;2024-01-15T14:10:17;5.67;;;1.80;;
21581;SDS011;10952;50.836;4.348;2024-01-15T14:13:10;5.47;;;1.80;;
21581;SDS011;10952;50.836;4.348;2024-01-15T14:15:39;6.43;;;1.23;;
21581;SDS011;10952;50.836;4.348;2024-01-15T14:18:18;12.63;;;2.30;;
21581;SDS011;10952;50.836;4.348;2024-01-15T14:20:47;7.50;;;2.53;;
21581;SDS011;10952;50.836;4.348;2024-01-15T14:28:19;17.67;;;2.77;;
21581;SDS011;10952;50.836;4.348;2024-01-15T14:30:45;8.07;;;2.30;;
21581;SDS011;10952;50.836;4.348;2024-01-15T14:33:11;9.93;;;1.93;;
21581;SDS011;10952;50.836;4.348;2024-01-15T14:35:36;13.30;;;1.77;;
21581;SDS011;10952;50.836;4.348;2024-01-15T14:38:02;10.90;;;2.07;;
21581;SDS011;10952;50.836;4.348;2024-01-15T14:40:28;6.63;;;1.57;;
21581;SDS011;10952;50.836;4.348;2024-01-15T14:42:54;3.60;;;1.40;;
21581;SDS011;10952;50.836;4.348;2024-01-15T14:45:20;6.13;;;1.83;;
21581;SDS011;10952;50.836;4.348;2024-01-15T14:47:46;6.57;;;1.67;;
21581;SDS011;10952;50.836;4.348;2024-01-15T14:50:11;4.50;;;1.57;;
21581;SDS011;10952;50.836;4.348;2024-01-15T14:52:37;6.73;;;1.60;;
21581;SDS011;10952;50.836;4.348;2024-01-15T14:55:04;6.10;;;1.37;;
21581;SDS011;10952;50.836;4.348;2024-01-15T14:57:30;3.30;;;1.30;;
21581;SDS011;10952;50.836;4.348;2024-01-15T14:59:56;5.30;;;1.13;;
21581;SDS011;10952;50.836;4.348;2024-01-15T15:02:22;3.30;;;1.10;;
21581;SDS011;10952;50.836;4.348;2024-01-15T15:04:49;6.57;;;1.87;;
21581;SDS011;10952;50.836;4.348;2024-01-15T15:07:14;3.83;;;1.30;;
21581;SDS011;10952;50.836;4.348;2024-01-15T15:09:40;7.17;;;1.90;;
21581;SDS011;10952;50.836;4.348;2024-01-15T15:12:06;3.93;;;1.50;;
21581;SDS011;10952;50.836;4.348;2024-01-15T15:14:32;2.70;;;1.20;;
21581;SDS011;10952;50.836;4.348;2024-01-15T15:17:05;3.83;;;1.47;;
21581;SDS011;10952;50.836;4.348;2024-01-15T15:19:31;7.83;;;1.87;;
21581;SDS011;10952;50.836;4.348;2024-01-15T15:21:57;5.20;;;1.30;;
21581;SDS011;10952;50.836;4.348;2024-01-15T15:24:23;3.73;;;1.10;;
21581;SDS011;10952;50.836;4.348;2024-01-15T15:26:49;5.80;;;1.43;;
21581;SDS011;10952;50.836;4.348;2024-01-15T15:29:14;6.93;;;1.27;;
21581;SDS011;10952;50.836;4.348;2024-01-15T15:31:41;3.27;;;1.80;;
21581;SDS011;10952;50.836;4.348;2024-01-15T15:34:07;8.17;;;1.50;;
21581;SDS011;10952;50.836;4.348;2024-01-15T15:36:33;3.93;;;1.63;;
21581;SDS011;10952;50.836;4.348;2024-01-15T15:38:59;5.50;;;1.97;;
21581;SDS011;10952;50.836;4.348;2024-01-15T15:41:24;2.97;;;1.47;;
21581;SDS011;10952;50.836;4.348;2024-01-15T15:43:51;2.83;;;1.33;;
21581;SDS011;10952;50.836;4.348;2024-01-15T15:46:16;6.43;;;1.27;;